sensor_id;sensor_type;location;lat;lon;timestamp;P1;durP1;ratioP1;P2;durP2;ratioP2
59512;SDS011;45330;51.634;5.562;2024-03-08T00:00:13;35.40;;;20.55;;
59512;SDS011;45330;51.634;5.562;2024-03-08T00:02:39;33.28;;;18.52;;
59512;SDS011;45330;51.634;5.562;2024-03-08T00:05:05;31.90;;;18.80;;
59512;SDS011;45330;51.634;5.562;2024-03-08T00:07:31;31.25;;;17.60;;
59512;SDS011;45330;51.634;5.562;2024-03-08T00:09:57;32.55;;;17.55;;
59512;SDS011;45330;51.634;5.562;2024-03-08T00:12:23;31.35;;;18.10;;
59512;SDS011;45330;51.634;5.562;2024-03-08T00:14:50;32.03;;;17.13;;
59512;SDS011;45330;51.634;5.562;2024-03-08T00:17:16;29.70;;;17.70;;
59512;SDS011;45330;51.634;5.562;2024-03-08T00:19:41;31.20;;;18.30;;
59512;SDS011;45330;51.634;5.562;2024-03-08T00:22:07;32.55;;;19.90;;
59512;SDS011;45330;51.634;5.562;2024-03-08T00:24:33;31.83;;;16.92;;
59512;SDS011;45330;51.634;5.562;2024-03-08T00:26:58;30.58;;;16.67;;
59512;SDS011;45330;51.634;5.562;2024-03-08T00:29:24;30.80;;;18.27;;
59512;SDS011;45330;51.634;5.562;2024-03-08T00:31:49;30.80;;;18.05;;
59512;SDS011;45330;51.634;5.562;2024-03-08T00:34:14;29.55;;;17.23;;
59512;SDS011;45330;51.634;5.562;2024-03-08T00:36:40;30.27;;;18.42;;
59512;SDS011;45330;51.634;5.562;2024-03-08T00:39:06;29.52;;;16.52;;
59512;SDS011;45330;51.634;5.562;2024-03-08T00:41:32;31.17;;;19.45;;
59512;SDS011;45330;51.634;5.562;2024-03-08T00:43:58;29.95;;;16.98;;
59512;SDS011;45330;51.634;5.562;2024-03-08T00:46:23;30.38;;;17.27;;
59512;SDS011;45330;51.634;5.562;2024-03-08T00:48:49;29.90;;;17.83;;
59512;SDS011;45330;51.634;5.562;2024-03-08T00:51:14;30.17;;;18.98;;
59512;SDS011;45330;51.634;5.562;2024-03-08T00:53:41;32.22;;;18.23;;
59512;SDS011;45330;51.634;5.562;2024-03-08T00:56:07;29.77;;;17.85;;
59512;SDS011;45330;51.634;5.562;2024-03-08T00:58:36;28.50;;;15.60;;
59512;SDS011;45330;51.634;5.562;2024-03-08T01:01:02;29.50;;;17.55;;
59512;SDS011;45330;51.634;5.562;2024-03-08T01:03:28;30.70;;;17.35;;
59512;SDS011;45330;51.634;5.562;2024-03-08T01:05:56;31.02;;;18.25;;
59512;SDS011;45330;51.634;5.562;2024-03-08T01:08:22;30.27;;;16.83;;
59512;SDS011;45330;51.634;5.562;2024-03-08T01:10:48;30.65;;;17.65;;
59512;SDS011;45330;51.634;5.562;2024-03-08T01:13:15;30.02;;;16.85;;
59512;SDS011;45330;51.634;5.562;2024-03-08T01:15:41;30.65;;;18.10;;
59512;SDS011;45330;51.634;5.562;2024-03-08T01:18:07;29.45;;;17.58;;
59512;SDS011;45330;51.634;5.562;2024-03-08T01:20:33;30.88;;;17.45;;
59512;SDS011;45330;51.634;5.562;2024-03-08T01:22:58;29.80;;;16.88;;
59512;SDS011;45330;51.634;5.562;2024-03-08T01:25:23;29.35;;;18.05;;
59512;SDS011;45330;51.634;5.562;2024-03-08T01:27:49;30.00;;;17.88;;
59512;SDS011;45330;51.634;5.562;2024-03-08T01:30:14;29.42;;;18.55;;
59512;SDS011;45330;51.634;5.562;2024-03-08T01:32:42;31.85;;;19.17;;
59512;SDS011;45330;51.634;5.562;2024-03-08T01:35:09;31.95;;;17.10;;
59512;SDS011;45330;51.634;5.562;2024-03-08T01:37:34;27.70;;;16.98;;
59512;SDS011;45330;51.634;5.562;2024-03-08T01:40:00;31.40;;;18.67;;
59512;SDS011;45330;51.634;5.562;2024-03-08T01:42:25;31.25;;;19.27;;
59512;SDS011;45330;51.634;5.562;2024-03-08T01:44:51;28.25;;;17.58;;
59512;SDS011;45330;51.634;5.562;2024-03-08T01:47:16;31.80;;;16.45;;
59512;SDS011;45330;51.634;5.562;2024-03-08T01:49:43;30.92;;;17.92;;
59512;SDS011;45330;51.634;5.562;2024-03-08T01:52:09;29.77;;;17.13;;
59512;SDS011;45330;51.634;5.562;2024-03-08T01:54:36;30.27;;;17.25;;
59512;SDS011;45330;51.634;5.562;2024-03-08T01:57:02;30.77;;;18.63;;
59512;SDS011;45330;51.634;5.562;2024-03-08T01:59:27;30.17;;;17.77;;
59512;SDS011;45330;51.634;5.562;2024-03-08T02:01:56;29.60;;;17.45;;
59512;SDS011;45330;51.634;5.562;2024-03-08T02:04:27;30.80;;;18.13;;
59512;SDS011;45330;51.634;5.562;2024-03-08T02:06:53;29.33;;;17.90;;
59512;SDS011;45330;51.634;5.562;2024-03-08T02:09:18;27.67;;;17.25;;
59512;SDS011;45330;51.634;5.562;2024-03-08T02:11:44;31.88;;;19.88;;
59512;SDS011;45330;51.634;5.562;2024-03-08T02:14:10;29.67;;;17.90;;
59512;SDS011;45330;51.634;5.562;2024-03-08T02:16:36;30.65;;;20.45;;
59512;SDS011;45330;51.634;5.562;2024-03-08T02:19:02;30.50;;;18.88;;
59512;SDS011;45330;51.634;5.562;2024-03-08T02:21:28;31.85;;;19.45;;
59512;SDS011;45330;51.634;5.562;2024-03-08T02:23:54;29.85;;;18.50;;
59512;SDS011;45330;51.634;5.562;2024-03-08T02:26:20;31.30;;;19.13;;
59512;SDS011;45330;51.634;5.562;2024-03-08T02:28:46;32.60;;;19.17;;
59512;SDS011;45330;51.634;5.562;2024-03-08T02:31:11;32.30;;;19.90;;
59512;SDS011;45330;51.634;5.562;2024-03-08T02:33:37;30.88;;;19.40;;
59512;SDS011;45330;51.634;5.562;2024-03-08T02:36:02;32.78;;;21.55;;
59512;SDS011;45330;51.634;5.562;2024-03-08T02:38:29;32.75;;;20.00;;
59512;SDS011;45330;51.634;5.562;2024-03-08T02:40:54;32.20;;;20.98;;
59512;SDS011;45330;51.634;5.562;2024-03-08T02:43:20;30.38;;;18.85;;
59512;SDS011;45330;51.634;5.562;2024-03-08T02:45:49;31.00;;;19.42;;
59512;SDS011;45330;51.634;5.562;2024-03-08T02:48:17;32.78;;;22.58;;
59512;SDS011;45330;51.634;5.562;2024-03-08T02:50:43;30.48;;;20.48;;
59512;SDS011;45330;51.634;5.562;2024-03-08T02:53:12;31.70;;;22.77;;
59512;SDS011;45330;51.634;5.562;2024-03-08T02:55:41;33.22;;;22.25;;
59512;SDS011;45330;51.634;5.562;2024-03-08T02:58:07;32.58;;;20.35;;
59512;SDS011;45330;51.634;5.562;2024-03-08T03:00:36;32.83;;;21.80;;
59512;SDS011;45330;51.634;5.562;2024-03-08T03:03:02;30.80;;;20.15;;
59512;SDS011;45330;51.634;5.562;2024-03-08T03:05:28;33.55;;;23.00;;
59512;SDS011;45330;51.634;5.562;2024-03-08T03:07:54;32.42;;;21.27;;
59512;SDS011;45330;51.634;5.562;2024-03-08T03:10:20;34.00;;;23.50;;
59512;SDS011;45330;51.634;5.562;2024-03-08T03:12:49;33.22;;;21.65;;
59512;SDS011;45330;51.634;5.562;2024-03-08T03:15:15;33.47;;;20.95;;
59512;SDS011;45330;51.634;5.562;2024-03-08T03:17:50;34.72;;;22.20;;
59512;SDS011;45330;51.634;5.562;2024-03-08T03:20:16;34.25;;;24.95;;
59512;SDS011;45330;51.634;5.562;2024-03-08T03:22:48;33.67;;;24.85;;
59512;SDS011;45330;51.634;5.562;2024-03-08T03:25:17;34.58;;;21.40;;
59512;SDS011;45330;51.634;5.562;2024-03-08T03:27:54;34.35;;;21.75;;
59512;SDS011;45330;51.634;5.562;2024-03-08T03:30:23;33.70;;;21.73;;
59512;SDS011;45330;51.634;5.562;2024-03-08T03:32:51;33.90;;;21.08;;
59512;SDS011;45330;51.634;5.562;2024-03-08T03:35:17;34.83;;;22.70;;
59512;SDS011;45330;51.634;5.562;2024-03-08T03:37:43;31.45;;;18.55;;
59512;SDS011;45330;51.634;5.562;2024-03-08T03:40:26;32.60;;;21.15;;
59512;SDS011;45330;51.634;5.562;2024-03-08T03:42:53;36.20;;;22.83;;
59512;SDS011;45330;51.634;5.562;2024-03-08T03:45:19;35.30;;;22.58;;
59512;SDS011;45330;51.634;5.562;2024-03-08T03:47:45;33.90;;;23.63;;
59512;SDS011;45330;51.634;5.562;2024-03-08T03:50:11;32.20;;;20.50;;
59512;SDS011;45330;51.634;5.562;2024-03-08T03:52:36;34.67;;;24.17;;
59512;SDS011;45330;51.634;5.562;2024-03-08T03:55:02;33.00;;;20.85;;
59512;SDS011;45330;51.634;5.562;2024-03-08T03:57:29;35.97;;;22.35;;
59512;SDS011;45330;51.634;5.562;2024-03-08T03:59:55;36.08;;;22.60;;
59512;SDS011;45330;51.634;5.562;2024-03-08T04:02:20;34.78;;;23.95;;
59512;SDS011;45330;51.634;5.562;2024-03-08T04:04:46;36.00;;;23.17;;
59512;SDS011;45330;51.634;5.562;2024-03-08T04:07:12;37.78;;;22.52;;
59512;SDS011;45330;51.634;5.562;2024-03-08T04:09:38;35.65;;;21.55;;
59512;SDS011;45330;51.634;5.562;2024-03-08T04:12:04;34.83;;;22.52;;
59512;SDS011;45330;51.634;5.562;2024-03-08T04:14:29;35.53;;;21.92;;
59512;SDS011;45330;51.634;5.562;2024-03-08T04:16:55;35.05;;;21.88;;
59512;SDS011;45330;51.634;5.562;2024-03-08T04:19:20;33.97;;;20.60;;
59512;SDS011;45330;51.634;5.562;2024-03-08T04:21:46;35.35;;;23.02;;
59512;SDS011;45330;51.634;5.562;2024-03-08T04:24:12;36.75;;;23.23;;
59512;SDS011;45330;51.634;5.562;2024-03-08T04:26:37;35.63;;;24.25;;
59512;SDS011;45330;51.634;5.562;2024-03-08T04:29:03;34.75;;;23.35;;
59512;SDS011;45330;51.634;5.562;2024-03-08T04:31:28;36.60;;;26.02;;
59512;SDS011;45330;51.634;5.562;2024-03-08T04:33:56;35.53;;;23.20;;
59512;SDS011;45330;51.634;5.562;2024-03-08T04:36:22;38.83;;;23.73;;
59512;SDS011;45330;51.634;5.562;2024-03-08T04:38:48;36.63;;;25.25;;
59512;SDS011;45330;51.634;5.562;2024-03-08T04:41:13;36.70;;;25.00;;
59512;SDS011;45330;51.634;5.562;2024-03-08T04:43:39;38.97;;;24.85;;
59512;SDS011;45330;51.634;5.562;2024-03-08T04:46:05;37.10;;;23.55;;
59512;SDS011;45330;51.634;5.562;2024-03-08T04:48:30;38.13;;;23.70;;
59512;SDS011;45330;51.634;5.562;2024-03-08T04:50:56;36.65;;;22.45;;
59512;SDS011;45330;51.634;5.562;2024-03-08T04:53:21;35.70;;;22.75;;
59512;SDS011;45330;51.634;5.562;2024-03-08T04:55:47;36.15;;;24.35;;
59512;SDS011;45330;51.634;5.562;2024-03-08T04:58:12;36.35;;;23.90;;
59512;SDS011;45330;51.634;5.562;2024-03-08T05:00:38;37.33;;;28.48;;
59512;SDS011;45330;51.634;5.562;2024-03-08T05:03:03;35.75;;;25.73;;
59512;SDS011;45330;51.634;5.562;2024-03-08T05:05:29;37.45;;;23.73;;
59512;SDS011;45330;51.634;5.562;2024-03-08T05:07:55;36.35;;;25.85;;
59512;SDS011;45330;51.634;5.562;2024-03-08T05:10:21;37.38;;;22.98;;
59512;SDS011;45330;51.634;5.562;2024-03-08T05:12:46;38.80;;;25.17;;
59512;SDS011;45330;51.634;5.562;2024-03-08T05:15:12;38.38;;;25.27;;
59512;SDS011;45330;51.634;5.562;2024-03-08T05:17:37;35.22;;;22.65;;
59512;SDS011;45330;51.634;5.562;2024-03-08T05:20:05;35.80;;;24.17;;
59512;SDS011;45330;51.634;5.562;2024-03-08T05:22:33;37.03;;;25.48;;
59512;SDS011;45330;51.634;5.562;2024-03-08T05:24:58;39.13;;;27.10;;
59512;SDS011;45330;51.634;5.562;2024-03-08T05:27:24;36.92;;;24.00;;
59512;SDS011;45330;51.634;5.562;2024-03-08T05:29:49;37.53;;;27.35;;
59512;SDS011;45330;51.634;5.562;2024-03-08T05:32:15;38.22;;;25.98;;
59512;SDS011;45330;51.634;5.562;2024-03-08T05:34:40;37.90;;;25.38;;
59512;SDS011;45330;51.634;5.562;2024-03-08T05:37:05;38.25;;;25.88;;
59512;SDS011;45330;51.634;5.562;2024-03-08T05:39:32;36.80;;;24.33;;
59512;SDS011;45330;51.634;5.562;2024-03-08T05:41:57;37.05;;;23.75;;
59512;SDS011;45330;51.634;5.562;2024-03-08T05:44:23;37.55;;;24.23;;
59512;SDS011;45330;51.634;5.562;2024-03-08T05:46:48;37.47;;;24.08;;
59512;SDS011;45330;51.634;5.562;2024-03-08T05:49:14;38.38;;;25.83;;
59512;SDS011;45330;51.634;5.562;2024-03-08T05:51:40;35.95;;;22.80;;
59512;SDS011;45330;51.634;5.562;2024-03-08T05:54:09;37.88;;;24.40;;
59512;SDS011;45330;51.634;5.562;2024-03-08T05:56:37;37.83;;;24.95;;
59512;SDS011;45330;51.634;5.562;2024-03-08T05:59:03;39.75;;;24.60;;
59512;SDS011;45330;51.634;5.562;2024-03-08T06:01:29;39.55;;;29.63;;
59512;SDS011;45330;51.634;5.562;2024-03-08T06:03:56;38.35;;;25.45;;
59512;SDS011;45330;51.634;5.562;2024-03-08T06:06:22;36.63;;;24.58;;
59512;SDS011;45330;51.634;5.562;2024-03-08T06:08:48;38.85;;;26.20;;
59512;SDS011;45330;51.634;5.562;2024-03-08T06:11:14;38.35;;;23.77;;
59512;SDS011;45330;51.634;5.562;2024-03-08T06:13:42;39.80;;;27.08;;
59512;SDS011;45330;51.634;5.562;2024-03-08T06:16:07;34.78;;;20.73;;
59512;SDS011;45330;51.634;5.562;2024-03-08T06:18:36;37.53;;;24.05;;
59512;SDS011;45330;51.634;5.562;2024-03-08T06:23:34;35.80;;;23.05;;
59512;SDS011;45330;51.634;5.562;2024-03-08T06:26:03;38.40;;;23.33;;
59512;SDS011;45330;51.634;5.562;2024-03-08T06:28:30;38.55;;;25.45;;
59512;SDS011;45330;51.634;5.562;2024-03-08T06:30:55;37.28;;;24.08;;
59512;SDS011;45330;51.634;5.562;2024-03-08T06:33:21;39.35;;;27.02;;
59512;SDS011;45330;51.634;5.562;2024-03-08T06:35:46;36.50;;;25.48;;
59512;SDS011;45330;51.634;5.562;2024-03-08T06:38:12;37.35;;;25.40;;
59512;SDS011;45330;51.634;5.562;2024-03-08T06:40:37;35.38;;;23.52;;
59512;SDS011;45330;51.634;5.562;2024-03-08T06:43:03;37.63;;;24.95;;
59512;SDS011;45330;51.634;5.562;2024-03-08T06:45:31;38.08;;;23.77;;
59512;SDS011;45330;51.634;5.562;2024-03-08T06:47:56;34.88;;;19.52;;
59512;SDS011;45330;51.634;5.562;2024-03-08T06:50:22;38.08;;;27.67;;
59512;SDS011;45330;51.634;5.562;2024-03-08T06:52:47;37.35;;;26.80;;
59512;SDS011;45330;51.634;5.562;2024-03-08T06:55:18;36.97;;;26.15;;
59512;SDS011;45330;51.634;5.562;2024-03-08T06:57:44;40.17;;;23.92;;
59512;SDS011;45330;51.634;5.562;2024-03-08T07:00:10;36.65;;;21.88;;
59512;SDS011;45330;51.634;5.562;2024-03-08T07:02:38;37.63;;;24.65;;
59512;SDS011;45330;51.634;5.562;2024-03-08T07:05:05;37.88;;;24.95;;
59512;SDS011;45330;51.634;5.562;2024-03-08T07:07:31;36.35;;;22.83;;
59512;SDS011;45330;51.634;5.562;2024-03-08T07:09:58;37.08;;;24.95;;
59512;SDS011;45330;51.634;5.562;2024-03-08T07:12:24;35.20;;;23.83;;
59512;SDS011;45330;51.634;5.562;2024-03-08T07:14:50;36.28;;;25.05;;
59512;SDS011;45330;51.634;5.562;2024-03-08T07:17:15;36.85;;;23.50;;
59512;SDS011;45330;51.634;5.562;2024-03-08T07:19:41;35.70;;;20.77;;
59512;SDS011;45330;51.634;5.562;2024-03-08T07:22:07;35.90;;;26.50;;
59512;SDS011;45330;51.634;5.562;2024-03-08T07:24:36;36.05;;;21.77;;
59512;SDS011;45330;51.634;5.562;2024-03-08T07:27:19;35.90;;;24.08;;
59512;SDS011;45330;51.634;5.562;2024-03-08T07:29:45;34.35;;;24.08;;
59512;SDS011;45330;51.634;5.562;2024-03-08T07:32:11;37.45;;;23.73;;
59512;SDS011;45330;51.634;5.562;2024-03-08T07:34:50;34.63;;;20.83;;
59512;SDS011;45330;51.634;5.562;2024-03-08T07:37:17;35.42;;;23.05;;
59512;SDS011;45330;51.634;5.562;2024-03-08T07:39:42;36.95;;;21.33;;
59512;SDS011;45330;51.634;5.562;2024-03-08T07:42:10;36.17;;;23.20;;
59512;SDS011;45330;51.634;5.562;2024-03-08T07:44:36;34.70;;;23.08;;
59512;SDS011;45330;51.634;5.562;2024-03-08T07:47:02;37.25;;;24.55;;
59512;SDS011;45330;51.634;5.562;2024-03-08T07:49:28;36.30;;;21.63;;
59512;SDS011;45330;51.634;5.562;2024-03-08T07:51:55;35.28;;;22.27;;
59512;SDS011;45330;51.634;5.562;2024-03-08T07:54:21;35.40;;;22.92;;
59512;SDS011;45330;51.634;5.562;2024-03-08T07:56:46;33.30;;;18.90;;
59512;SDS011;45330;51.634;5.562;2024-03-08T07:59:12;33.00;;;21.98;;
59512;SDS011;45330;51.634;5.562;2024-03-08T08:01:37;34.58;;;22.38;;
59512;SDS011;45330;51.634;5.562;2024-03-08T08:04:03;34.58;;;21.33;;
59512;SDS011;45330;51.634;5.562;2024-03-08T08:06:28;33.45;;;21.10;;
59512;SDS011;45330;51.634;5.562;2024-03-08T08:08:58;31.35;;;18.55;;
59512;SDS011;45330;51.634;5.562;2024-03-08T08:11:25;34.65;;;22.40;;
59512;SDS011;45330;51.634;5.562;2024-03-08T08:13:52;34.55;;;20.98;;
59512;SDS011;45330;51.634;5.562;2024-03-08T08:16:19;32.10;;;20.48;;
59512;SDS011;45330;51.634;5.562;2024-03-08T08:18:45;34.45;;;23.80;;
59512;SDS011;45330;51.634;5.562;2024-03-08T08:21:11;30.17;;;19.58;;
59512;SDS011;45330;51.634;5.562;2024-03-08T08:23:36;34.30;;;20.23;;
59512;SDS011;45330;51.634;5.562;2024-03-08T08:26:02;31.45;;;19.23;;
59512;SDS011;45330;51.634;5.562;2024-03-08T08:28:29;33.58;;;19.35;;
59512;SDS011;45330;51.634;5.562;2024-03-08T08:30:55;32.92;;;21.05;;
59512;SDS011;45330;51.634;5.562;2024-03-08T08:33:21;33.55;;;19.92;;
59512;SDS011;45330;51.634;5.562;2024-03-08T08:35:46;31.25;;;18.85;;
59512;SDS011;45330;51.634;5.562;2024-03-08T08:38:13;31.63;;;19.02;;
59512;SDS011;45330;51.634;5.562;2024-03-08T08:40:38;32.85;;;22.17;;
59512;SDS011;45330;51.634;5.562;2024-03-08T08:43:04;33.28;;;21.90;;
59512;SDS011;45330;51.634;5.562;2024-03-08T08:45:32;31.33;;;19.17;;
59512;SDS011;45330;51.634;5.562;2024-03-08T08:48:00;30.92;;;18.20;;
59512;SDS011;45330;51.634;5.562;2024-03-08T08:50:26;31.35;;;19.08;;
59512;SDS011;45330;51.634;5.562;2024-03-08T08:52:53;31.08;;;19.33;;
59512;SDS011;45330;51.634;5.562;2024-03-08T08:55:19;31.13;;;18.67;;
59512;SDS011;45330;51.634;5.562;2024-03-08T08:57:50;31.67;;;19.13;;
59512;SDS011;45330;51.634;5.562;2024-03-08T09:00:17;31.70;;;21.20;;
59512;SDS011;45330;51.634;5.562;2024-03-08T09:02:46;31.92;;;19.42;;
59512;SDS011;45330;51.634;5.562;2024-03-08T09:05:13;31.58;;;19.20;;
59512;SDS011;45330;51.634;5.562;2024-03-08T09:07:42;28.90;;;18.48;;
59512;SDS011;45330;51.634;5.562;2024-03-08T09:10:10;29.33;;;16.98;;
59512;SDS011;45330;51.634;5.562;2024-03-08T09:12:37;30.17;;;18.48;;
59512;SDS011;45330;51.634;5.562;2024-03-08T09:15:06;28.70;;;16.63;;
59512;SDS011;45330;51.634;5.562;2024-03-08T09:17:38;30.85;;;20.17;;
59512;SDS011;45330;51.634;5.562;2024-03-08T09:20:06;30.50;;;18.45;;
59512;SDS011;45330;51.634;5.562;2024-03-08T09:22:33;30.85;;;19.13;;
59512;SDS011;45330;51.634;5.562;2024-03-08T09:24:59;28.63;;;16.35;;
59512;SDS011;45330;51.634;5.562;2024-03-08T09:27:25;30.45;;;17.70;;
59512;SDS011;45330;51.634;5.562;2024-03-08T09:29:50;29.85;;;19.02;;
59512;SDS011;45330;51.634;5.562;2024-03-08T09:32:16;30.08;;;16.60;;
59512;SDS011;45330;51.634;5.562;2024-03-08T09:34:41;27.70;;;13.98;;
59512;SDS011;45330;51.634;5.562;2024-03-08T09:37:07;29.58;;;16.48;;
59512;SDS011;45330;51.634;5.562;2024-03-08T09:39:34;29.17;;;16.95;;
59512;SDS011;45330;51.634;5.562;2024-03-08T09:41:59;29.98;;;19.17;;
59512;SDS011;45330;51.634;5.562;2024-03-08T09:44:25;29.17;;;19.27;;
59512;SDS011;45330;51.634;5.562;2024-03-08T09:46:53;28.55;;;15.40;;
59512;SDS011;45330;51.634;5.562;2024-03-08T09:49:20;28.40;;;17.40;;
59512;SDS011;45330;51.634;5.562;2024-03-08T09:51:45;28.42;;;16.83;;
59512;SDS011;45330;51.634;5.562;2024-03-08T09:54:12;28.90;;;16.67;;
59512;SDS011;45330;51.634;5.562;2024-03-08T09:56:38;28.88;;;18.60;;
59512;SDS011;45330;51.634;5.562;2024-03-08T09:59:09;28.05;;;18.58;;
59512;SDS011;45330;51.634;5.562;2024-03-08T10:01:35;28.30;;;19.55;;
59512;SDS011;45330;51.634;5.562;2024-03-08T10:04:01;28.35;;;16.90;;
59512;SDS011;45330;51.634;5.562;2024-03-08T10:06:27;29.00;;;17.80;;
59512;SDS011;45330;51.634;5.562;2024-03-08T10:08:52;28.52;;;18.55;;
59512;SDS011;45330;51.634;5.562;2024-03-08T10:11:18;26.58;;;15.80;;
59512;SDS011;45330;51.634;5.562;2024-03-08T10:13:44;26.88;;;15.80;;
59512;SDS011;45330;51.634;5.562;2024-03-08T10:16:11;27.23;;;14.50;;
59512;SDS011;45330;51.634;5.562;2024-03-08T10:18:37;28.83;;;15.95;;
59512;SDS011;45330;51.634;5.562;2024-03-08T10:21:07;26.88;;;15.95;;
59512;SDS011;45330;51.634;5.562;2024-03-08T10:23:39;26.42;;;14.20;;
59512;SDS011;45330;51.634;5.562;2024-03-08T10:26:14;25.85;;;14.45;;
59512;SDS011;45330;51.634;5.562;2024-03-08T10:28:44;27.70;;;15.55;;
59512;SDS011;45330;51.634;5.562;2024-03-08T10:31:10;27.25;;;14.95;;
59512;SDS011;45330;51.634;5.562;2024-03-08T10:33:36;27.95;;;16.00;;
59512;SDS011;45330;51.634;5.562;2024-03-08T10:36:06;27.02;;;14.88;;
59512;SDS011;45330;51.634;5.562;2024-03-08T10:38:33;28.05;;;15.05;;
59512;SDS011;45330;51.634;5.562;2024-03-08T10:41:01;25.55;;;14.00;;
59512;SDS011;45330;51.634;5.562;2024-03-08T10:43:31;28.27;;;15.18;;
59512;SDS011;45330;51.634;5.562;2024-03-08T10:46:15;25.13;;;12.93;;
59512;SDS011;45330;51.634;5.562;2024-03-08T10:49:04;25.05;;;13.75;;
59512;SDS011;45330;51.634;5.562;2024-03-08T10:51:33;25.67;;;14.32;;
59512;SDS011;45330;51.634;5.562;2024-03-08T10:53:59;24.67;;;13.00;;
59512;SDS011;45330;51.634;5.562;2024-03-08T10:56:25;27.52;;;16.30;;
59512;SDS011;45330;51.634;5.562;2024-03-08T10:58:53;25.50;;;15.05;;
59512;SDS011;45330;51.634;5.562;2024-03-08T11:01:20;27.00;;;14.30;;
59512;SDS011;45330;51.634;5.562;2024-03-08T11:03:46;25.45;;;15.75;;
59512;SDS011;45330;51.634;5.562;2024-03-08T11:09:31;24.58;;;13.88;;
59512;SDS011;45330;51.634;5.562;2024-03-08T11:14:53;26.38;;;14.50;;
59512;SDS011;45330;51.634;5.562;2024-03-08T11:17:26;25.38;;;15.52;;
59512;SDS011;45330;51.634;5.562;2024-03-08T11:20:15;25.70;;;13.10;;
59512;SDS011;45330;51.634;5.562;2024-03-08T11:22:42;25.10;;;14.30;;
59512;SDS011;45330;51.634;5.562;2024-03-08T11:25:46;24.40;;;12.82;;
59512;SDS011;45330;51.634;5.562;2024-03-08T11:30:41;25.27;;;15.43;;
59512;SDS011;45330;51.634;5.562;2024-03-08T11:33:27;24.90;;;12.98;;
59512;SDS011;45330;51.634;5.562;2024-03-08T11:38:48;24.85;;;13.43;;
59512;SDS011;45330;51.634;5.562;2024-03-08T11:41:20;24.80;;;14.00;;
59512;SDS011;45330;51.634;5.562;2024-03-08T11:43:48;22.67;;;10.40;;
59512;SDS011;45330;51.634;5.562;2024-03-08T11:46:15;24.13;;;13.77;;
59512;SDS011;45330;51.634;5.562;2024-03-08T11:48:42;26.08;;;15.07;;
59512;SDS011;45330;51.634;5.562;2024-03-08T11:51:08;25.83;;;14.57;;
59512;SDS011;45330;51.634;5.562;2024-03-08T11:53:39;25.80;;;14.27;;
59512;SDS011;45330;51.634;5.562;2024-03-08T11:56:09;25.77;;;14.00;;
59512;SDS011;45330;51.634;5.562;2024-03-08T11:58:36;26.42;;;14.07;;
59512;SDS011;45330;51.634;5.562;2024-03-08T12:01:05;25.83;;;14.77;;
59512;SDS011;45330;51.634;5.562;2024-03-08T12:03:32;25.15;;;13.45;;
59512;SDS011;45330;51.634;5.562;2024-03-08T12:06:00;25.13;;;14.10;;
59512;SDS011;45330;51.634;5.562;2024-03-08T12:08:28;26.33;;;15.73;;
59512;SDS011;45330;51.634;5.562;2024-03-08T12:10:56;25.88;;;15.00;;
59512;SDS011;45330;51.634;5.562;2024-03-08T12:13:31;27.63;;;13.98;;
59512;SDS011;45330;51.634;5.562;2024-03-08T12:15:59;25.83;;;13.20;;
59512;SDS011;45330;51.634;5.562;2024-03-08T12:18:30;24.90;;;13.40;;
59512;SDS011;45330;51.634;5.562;2024-03-08T12:21:09;24.42;;;14.05;;
59512;SDS011;45330;51.634;5.562;2024-03-08T12:23:37;24.63;;;14.43;;
59512;SDS011;45330;51.634;5.562;2024-03-08T12:26:15;25.02;;;13.77;;
59512;SDS011;45330;51.634;5.562;2024-03-08T12:28:49;26.70;;;14.60;;
59512;SDS011;45330;51.634;5.562;2024-03-08T12:31:16;25.05;;;13.82;;
59512;SDS011;45330;51.634;5.562;2024-03-08T12:33:52;25.33;;;14.40;;
59512;SDS011;45330;51.634;5.562;2024-03-08T12:36:19;26.23;;;14.43;;
59512;SDS011;45330;51.634;5.562;2024-03-08T12:38:46;25.60;;;14.55;;
59512;SDS011;45330;51.634;5.562;2024-03-08T12:41:14;24.27;;;15.65;;
59512;SDS011;45330;51.634;5.562;2024-03-08T12:43:42;25.08;;;12.85;;
59512;SDS011;45330;51.634;5.562;2024-03-08T12:46:09;24.33;;;13.98;;
59512;SDS011;45330;51.634;5.562;2024-03-08T12:48:35;25.85;;;13.10;;
59512;SDS011;45330;51.634;5.562;2024-03-08T12:51:01;25.40;;;14.73;;
59512;SDS011;45330;51.634;5.562;2024-03-08T12:53:26;26.30;;;15.65;;
59512;SDS011;45330;51.634;5.562;2024-03-08T12:55:54;24.35;;;15.52;;
59512;SDS011;45330;51.634;5.562;2024-03-08T12:58:21;25.15;;;13.82;;
59512;SDS011;45330;51.634;5.562;2024-03-08T13:00:47;26.08;;;15.60;;
59512;SDS011;45330;51.634;5.562;2024-03-08T13:03:14;24.10;;;13.43;;
59512;SDS011;45330;51.634;5.562;2024-03-08T13:05:39;26.35;;;15.15;;
59512;SDS011;45330;51.634;5.562;2024-03-08T13:08:06;25.33;;;14.65;;
59512;SDS011;45330;51.634;5.562;2024-03-08T13:10:38;25.58;;;14.80;;
59512;SDS011;45330;51.634;5.562;2024-03-08T13:13:05;25.63;;;13.65;;
59512;SDS011;45330;51.634;5.562;2024-03-08T13:15:30;25.80;;;14.70;;
59512;SDS011;45330;51.634;5.562;2024-03-08T13:17:55;24.98;;;13.75;;
59512;SDS011;45330;51.634;5.562;2024-03-08T13:20:25;23.73;;;13.00;;
59512;SDS011;45330;51.634;5.562;2024-03-08T13:22:53;26.20;;;14.40;;
59512;SDS011;45330;51.634;5.562;2024-03-08T13:25:19;24.80;;;13.82;;
59512;SDS011;45330;51.634;5.562;2024-03-08T13:27:45;25.63;;;14.57;;
59512;SDS011;45330;51.634;5.562;2024-03-08T13:30:11;23.85;;;13.98;;
59512;SDS011;45330;51.634;5.562;2024-03-08T13:32:43;25.13;;;14.02;;
59512;SDS011;45330;51.634;5.562;2024-03-08T13:35:12;26.10;;;16.15;;
59512;SDS011;45330;51.634;5.562;2024-03-08T13:37:38;25.50;;;15.65;;
59512;SDS011;45330;51.634;5.562;2024-03-08T13:40:08;24.75;;;15.23;;
59512;SDS011;45330;51.634;5.562;2024-03-08T13:42:39;25.15;;;14.90;;
59512;SDS011;45330;51.634;5.562;2024-03-08T13:45:06;24.17;;;14.15;;
59512;SDS011;45330;51.634;5.562;2024-03-08T13:47:35;24.52;;;13.23;;
59512;SDS011;45330;51.634;5.562;2024-03-08T13:50:02;25.60;;;14.00;;
59512;SDS011;45330;51.634;5.562;2024-03-08T13:52:29;24.05;;;14.90;;
59512;SDS011;45330;51.634;5.562;2024-03-08T13:54:54;26.95;;;15.45;;
59512;SDS011;45330;51.634;5.562;2024-03-08T13:57:20;23.88;;;15.45;;
59512;SDS011;45330;51.634;5.562;2024-03-08T13:59:47;25.20;;;15.10;;
59512;SDS011;45330;51.634;5.562;2024-03-08T14:02:15;25.45;;;14.82;;
59512;SDS011;45330;51.634;5.562;2024-03-08T14:04:42;25.63;;;14.52;;
59512;SDS011;45330;51.634;5.562;2024-03-08T14:07:07;24.92;;;15.25;;
59512;SDS011;45330;51.634;5.562;2024-03-08T14:09:33;25.27;;;14.50;;
59512;SDS011;45330;51.634;5.562;2024-03-08T14:12:03;26.17;;;15.25;;
59512;SDS011;45330;51.634;5.562;2024-03-08T14:14:32;25.73;;;15.30;;
59512;SDS011;45330;51.634;5.562;2024-03-08T14:17:00;25.90;;;15.32;;
59512;SDS011;45330;51.634;5.562;2024-03-08T14:19:29;25.00;;;14.57;;
59512;SDS011;45330;51.634;5.562;2024-03-08T14:21:58;26.40;;;16.55;;
59512;SDS011;45330;51.634;5.562;2024-03-08T14:24:24;24.27;;;15.70;;
59512;SDS011;45330;51.634;5.562;2024-03-08T14:26:51;25.08;;;14.23;;
59512;SDS011;45330;51.634;5.562;2024-03-08T14:29:17;25.33;;;15.23;;
59512;SDS011;45330;51.634;5.562;2024-03-08T14:31:43;25.40;;;14.73;;
59512;SDS011;45330;51.634;5.562;2024-03-08T14:34:10;25.67;;;15.20;;